Time;durP1;ratioP1;P1;durP2;ratioP2;P2;SDS_P1;SDS_P2;PMS_P1;PMS_P2;Temp;Humidity;BMP_temperature;BMP_pressure;BME280_temperature;BME280_humidity;BME280_pressure;Samples;Min_cycle;Max_cycle;Signal;HPM_P1;HPM_P2
2022/09/15 00:00:11;;;;;;;2.33;1.95;;;;;;;;;;4934965;29;20119;-67
2022/09/15 00:02:37;;;;;;;;;;;;;;;;;;4935026;29;20027;-68
2022/09/15 00:05:03;;;;;;;2.67;1.83;;;;;;;;;;4934949;29;19914;-67
2022/09/15 00:07:30;;;;;;;2.40;2.00;;;;;;;;;;4934356;29;20028;-67
2022/09/15 00:09:56;;;;;;;1.92;1.80;;;;;;;;;;4938036;29;20035;-67
2022/09/15 00:12:26;;;;;;;4.85;2.03;;;;;;;;;;4938104;29;20031;-65
2022/09/15 00:14:52;;;;;;;1.95;1.80;;;;;;;;;;4938349;29;20349;-67
2022/09/15 00:17:18;;;;;;;3.80;2.17;;;;;;;;;;4937967;29;20030;-67
2022/09/15 00:19:43;;;;;;;2.25;2.05;;;;;;;;;;4937954;29;20043;-67
2022/09/15 00:22:09;;;;;;;3.83;2.15;;;;;;;;;;4937803;29;20032;-66
2022/09/15 00:24:34;;;;;;;2.97;1.92;;;;;;;;;;4938157;29;20115;-67
2022/09/15 00:27:00;;;;;;;3.28;1.92;;;;;;;;;;4937798;29;20106;-67
2022/09/15 00:29:26;;;;;;;2.13;1.83;;;;;;;;;;4937587;29;20036;-68
2022/09/15 00:31:51;;;;;;;2.03;1.83;;;;;;;;;;4937772;29;20032;-67
2022/09/15 00:34:17;;;;;;;2.40;1.70;;;;;;;;;;4937769;29;20668;-67
2022/09/15 00:36:42;;;;;;;2.60;1.85;;;;;;;;;;4937818;29;20035;-66
2022/09/15 00:39:08;;;;;;;6.13;2.17;;;;;;;;;;4937601;29;20027;-67
2022/09/15 00:41:34;;;;;;;2.58;1.90;;;;;;;;;;4937847;29;20069;-67
2022/09/15 00:44:17;;;;;;;2.38;1.90;;;;;;;;;;4937544;29;20107;-67
2022/09/15 00:46:47;;;;;;;2.58;1.92;;;;;;;;;;4937740;29;20115;-68
2022/09/15 00:49:21;;;;;;;2.63;2.10;;;;;;;;;;4937702;29;20027;-68
2022/09/15 00:51:48;;;;;;;3.92;2.10;;;;;;;;;;4937771;29;20433;-66
2022/09/15 00:54:18;;;;;;;2.20;1.98;;;;;;;;;;4937410;29;20429;-67
2022/09/15 00:56:45;;;;;;;2.30;2.03;;;;;;;;;;4937414;29;20042;-67
2022/09/15 00:59:15;;;;;;;4.28;2.00;;;;;;;;;;4937551;29;20384;-67
2022/09/15 01:01:42;;;;;;;2.95;2.08;;;;;;;;;;4937293;29;20031;-68
2022/09/15 01:04:08;;;;;;;2.42;2.00;;;;;;;;;;4937483;29;20035;-68
2022/09/15 01:06:46;;;;;;;2.10;1.90;;;;;;;;;;4937424;29;20518;-61
2022/09/15 01:09:17;;;;;;;2.55;2.35;;;;;;;;;;4937104;29;20118;-66
2022/09/15 01:11:43;;;;;;;2.45;1.70;;;;;;;;;;4937129;29;20028;-66
2022/09/15 01:14:09;;;;;;;2.00;1.80;;;;;;;;;;4937324;29;20547;-66
2022/09/15 01:16:54;;;;;;;5.05;2.08;;;;;;;;;;4936920;29;20051;-66
2022/09/15 01:19:20;;;;;;;2.25;1.77;;;;;;;;;;4935992;29;20090;-67
2022/09/15 01:22:07;;;;;;;2.40;2.00;;;;;;;;;;4936986;29;20107;-67
2022/09/15 01:24:32;;;;;;;3.53;1.70;;;;;;;;;;4937123;29;20027;-68
2022/09/15 01:27:27;;;;;;;2.20;2.00;;;;;;;;;;4936707;29;20082;-68
2022/09/15 01:30:08;;;;;;;2.60;1.70;;;;;;;;;;4931027;29;20127;-67
2022/09/15 01:33:04;;;;;;;2.08;1.90;;;;;;;;;;4936704;29;20063;-67
2022/09/15 01:35:51;;;;;;;1.63;1.52;;;;;;;;;;4936598;29;20165;-68
2022/09/15 01:38:46;;;;;;;1.95;1.80;;;;;;;;;;4936807;29;20027;-67
2022/09/15 01:41:24;;;;;;;2.60;1.92;;;;;;;;;;4936702;29;20027;-67
2022/09/15 01:43:59;;;;;;;2.67;1.95;;;;;;;;;;4936703;29;20106;-68
2022/09/15 01:46:29;;;;;;;2.08;1.90;;;;;;;;;;4936653;29;20384;-67
2022/09/15 01:48:56;;;;;;;2.78;2.38;;;;;;;;;;4936568;29;20027;-67
2022/09/15 01:51:24;;;;;;;3.63;1.92;;;;;;;;;;4936595;29;20050;-60
2022/09/15 01:53:52;;;;;;;2.30;1.90;;;;;;;;;;4936504;29;20388;-65
2022/09/15 01:56:17;;;;;;;1.98;1.88;;;;;;;;;;4936227;29;20114;-66
2022/09/15 01:58:43;;;;;;;2.38;1.70;;;;;;;;;;4936322;29;20115;-64
2022/09/15 02:01:11;;;;;;;1.80;1.70;;;;;;;;;;4936384;29;20503;-62
2022/09/15 02:03:54;;;;;;;3.42;2.00;;;;;;;;;;4936291;29;20032;-66
2022/09/15 02:06:42;;;;;;;2.30;2.10;;;;;;;;;;4936302;29;20038;-66
2022/09/15 02:09:16;;;;;;;1.80;1.70;;;;;;;;;;4936111;29;20031;-67
2022/09/15 02:12:01;;;;;;;2.25;1.85;;;;;;;;;;4936236;29;20432;-66
2022/09/15 02:14:36;;;;;;;2.00;1.80;;;;;;;;;;4936176;29;20140;-65
2022/09/15 02:17:04;;;;;;;2.20;1.90;;;;;;;;;;4936215;29;20071;-63
2022/09/15 02:19:40;;;;;;;2.22;1.98;;;;;;;;;;4935849;29;20086;-65
2022/09/15 02:22:22;;;;;;;2.70;2.03;;;;;;;;;;4935837;29;20027;-67
2022/09/15 02:25:02;;;;;;;1.90;1.73;;;;;;;;;;4935779;29;20028;-67
2022/09/15 02:27:32;;;;;;;2.15;1.90;;;;;;;;;;4935904;29;20031;-66
2022/09/15 02:30:04;;;;;;;1.83;1.70;;;;;;;;;;4935615;29;20478;-63
2022/09/15 02:32:32;;;;;;;1.90;1.80;;;;;;;;;;4934513;29;20080;-65
2022/09/15 02:35:03;;;;;;;2.13;1.73;;;;;;;;;;4935887;29;20031;-64
2022/09/15 02:37:29;;;;;;;1.98;1.80;;;;;;;;;;4935526;29;20371;-65
2022/09/15 02:39:57;;;;;;;2.60;1.90;;;;;;;;;;4935792;29;20459;-64
2022/09/15 02:42:28;;;;;;;1.75;1.65;;;;;;;;;;4935739;29;20031;-61
2022/09/15 02:44:54;;;;;;;2.08;1.92;;;;;;;;;;4935448;29;20111;-65
2022/09/15 02:47:20;;;;;;;2.10;1.90;;;;;;;;;;4935679;29;20111;-62
2022/09/15 02:49:45;;;;;;;2.00;1.83;;;;;;;;;;4935375;29;20476;-65
2022/09/15 02:52:11;;;;;;;2.60;1.90;;;;;;;;;;4935581;29;20146;-65
2022/09/15 02:54:37;;;;;;;2.55;2.00;;;;;;;;;;4935687;29;20450;-64
2022/09/15 02:57:03;;;;;;;2.10;1.80;;;;;;;;;;4935278;29;20031;-64
2022/09/15 03:00:11;;;;;;;1.90;1.80;;;;;;;;;;4935264;29;20038;-65
2022/09/15 03:02:13;;;;;;;2.67;1.92;;;;;;;;;;4935131;29;20039;-66
2022/09/15 03:04:39;;;;;;;1.90;1.80;;;;;;;;;;4935211;29;20039;-67
2022/09/15 03:07:04;;;;;;;3.78;1.80;;;;;;;;;;4935160;29;20032;-64
2022/09/15 03:09:30;;;;;;;2.13;1.92;;;;;;;;;;4935339;29;20039;-67
2022/09/15 03:11:55;;;;;;;2.60;1.92;;;;;;;;;;4935434;29;20024;-66
2022/09/15 03:14:21;;;;;;;1.85;1.63;;;;;;;;;;4935069;29;20028;-63
2022/09/15 03:16:46;;;;;;;2.10;1.90;;;;;;;;;;4934954;29;20110;-65
2022/09/15 03:19:11;;;;;;;2.30;2.10;;;;;;;;;;4935061;29;20074;-66
2022/09/15 03:21:37;;;;;;;2.55;1.90;;;;;;;;;;4934962;29;20066;-63
2022/09/15 03:24:03;;;;;;;3.15;1.70;;;;;;;;;;4934913;29;20085;-66
2022/09/15 03:26:28;;;;;;;2.58;1.73;;;;;;;;;;4934923;29;20023;-64
2022/09/15 03:28:54;;;;;;;3.05;1.90;;;;;;;;;;4935114;29;20039;-61
2022/09/15 03:31:19;;;;;;;2.42;2.10;;;;;;;;;;4934902;29;20369;-66
2022/09/15 03:33:45;;;;;;;2.08;1.85;;;;;;;;;;4934840;29;20048;-66
2022/09/15 03:36:10;;;;;;;2.00;1.80;;;;;;;;;;4934826;29;20020;-67
2022/09/15 03:38:36;;;;;;;2.00;1.80;;;;;;;;;;4934886;29;20032;-67
2022/09/15 03:41:06;;;;;;;2.10;1.90;;;;;;;;;;4934915;29;20039;-66
2022/09/15 03:43:32;;;;;;;3.25;2.33;;;;;;;;;;4936855;29;20032;-62
2022/09/15 03:45:58;;;;;;;2.25;1.85;;;;;;;;;;4938558;29;20023;-67
2022/09/15 03:48:25;;;;;;;2.92;2.10;;;;;;;;;;4938775;29;20046;-65
2022/09/15 03:50:51;;;;;;;3.35;1.77;;;;;;;;;;4938759;29;20034;-66
2022/09/15 03:53:16;;;;;;;2.10;2.00;;;;;;;;;;4938510;29;20388;-65
2022/09/15 03:55:44;;;;;;;1.80;1.70;;;;;;;;;;4938384;29;20095;-66
2022/09/15 03:58:11;;;;;;;6.88;2.17;;;;;;;;;;4921548;29;20632;-65
2022/09/15 04:00:36;;;;;;;2.20;1.92;;;;;;;;;;4938434;29;20373;-66
2022/09/15 04:03:02;;;;;;;1.98;1.80;;;;;;;;;;4938257;29;20078;-64
2022/09/15 04:05:28;;;;;;;2.35;2.00;;;;;;;;;;4938308;29;20036;-67
2022/09/15 04:07:53;;;;;;;2.15;1.75;;;;;;;;;;4938413;29;20027;-65
2022/09/15 04:10:19;;;;;;;2.33;2.00;;;;;;;;;;4921060;29;20023;-58
2022/09/15 04:12:45;;;;;;;2.65;1.88;;;;;;;;;;4938125;29;20365;-61
2022/09/15 04:15:10;;;;;;;1.85;1.75;;;;;;;;;;4938007;29;20035;-67
2022/09/15 04:17:35;;;;;;;2.00;1.73;;;;;;;;;;4938393;29;20032;-58
2022/09/15 04:20:01;;;;;;;2.85;2.28;;;;;;;;;;4938007;29;20048;-65
2022/09/15 04:22:30;;;;;;;2.20;2.00;;;;;;;;;;4937869;29;20028;-64
2022/09/15 04:24:55;;;;;;;2.28;1.98;;;;;;;;;;4937969;29;20523;-65
2022/09/15 04:27:21;;;;;;;2.50;2.17;;;;;;;;;;4937995;29;20028;-66
2022/09/15 04:29:50;;;;;;;2.10;1.90;;;;;;;;;;4937615;29;20036;-67
2022/09/15 04:32:16;;;;;;;1.98;1.77;;;;;;;;;;4937861;29;20411;-67
2022/09/15 04:34:41;;;;;;;2.30;1.98;;;;;;;;;;4937987;29;20027;-66
2022/09/15 04:37:07;;;;;;;1.80;1.70;;;;;;;;;;4937756;29;20070;-66
2022/09/15 04:39:32;;;;;;;2.20;2.00;;;;;;;;;;4937897;29;20122;-65
2022/09/15 04:41:58;;;;;;;1.98;1.77;;;;;;;;;;4937497;29;20098;-64
2022/09/15 04:44:23;;;;;;;3.72;1.67;;;;;;;;;;4937902;29;20020;-65
2022/09/15 04:46:49;;;;;;;2.20;2.00;;;;;;;;;;4937718;29;20435;-66
2022/09/15 04:49:15;;;;;;;2.35;1.70;;;;;;;;;;4937221;29;20542;-65
2022/09/15 04:51:40;;;;;;;2.58;1.90;;;;;;;;;;4937422;29;20054;-66
2022/09/15 04:54:06;;;;;;;3.25;1.90;;;;;;;;;;4919595;29;20461;-67
2022/09/15 04:56:32;;;;;;;2.65;1.90;;;;;;;;;;4937119;29;20035;-59
2022/09/15 04:58:58;;;;;;;2.75;2.13;;;;;;;;;;4937204;29;20051;-67
2022/09/15 05:01:29;;;;;;;2.13;2.00;;;;;;;;;;4937424;29;20391;-65
2022/09/15 05:03:55;;;;;;;3.17;2.00;;;;;;;;;;4937112;29;20392;-65
2022/09/15 05:06:23;;;;;;;3.92;2.00;;;;;;;;;;4937175;29;20032;-65
2022/09/15 05:08:51;;;;;;;3.72;1.73;;;;;;;;;;4937096;29;20472;-67
2022/09/15 05:11:18;;;;;;;2.30;1.75;;;;;;;;;;4937321;29;20039;-67
2022/09/15 05:13:44;;;;;;;2.28;1.88;;;;;;;;;;4937256;29;20115;-63
2022/09/15 05:16:24;;;;;;;2.40;1.88;;;;;;;;;;4936957;29;20163;-67
2022/09/15 05:18:50;;;;;;;1.95;1.85;;;;;;;;;;4936999;29;20035;-67
2022/09/15 05:21:18;;;;;;;2.95;1.95;;;;;;;;;;4936878;29;20506;-65
2022/09/15 05:23:45;;;;;;;3.42;1.80;;;;;;;;;;4936826;29;20031;-66
2022/09/15 05:26:13;;;;;;;3.15;1.90;;;;;;;;;;4936662;29;20032;-68
2022/09/15 05:28:39;;;;;;;2.03;1.70;;;;;;;;;;4936722;29;20035;-64
2022/09/15 05:31:16;;;;;;;3.15;1.90;;;;;;;;;;4937002;29;20072;-62
2022/09/15 05:33:42;;;;;;;1.70;1.60;;;;;;;;;;4936610;29;20067;-62
2022/09/15 05:36:08;;;;;;;2.28;1.90;;;;;;;;;;4936537;29;20074;-61
2022/09/15 05:38:36;;;;;;;2.15;1.90;;;;;;;;;;4936812;29;20036;-58
2022/09/15 05:41:04;;;;;;;2.47;1.80;;;;;;;;;;4936785;29;20032;-58
2022/09/15 05:43:31;;;;;;;2.13;1.92;;;;;;;;;;4936393;29;20024;-58
2022/09/15 05:45:57;;;;;;;2.65;1.85;;;;;;;;;;4936494;29;20376;-57
2022/09/15 05:48:23;;;;;;;2.08;1.70;;;;;;;;;;4936257;29;20024;-59
2022/09/15 05:50:50;;;;;;;1.80;1.70;;;;;;;;;;4936188;29;20036;-64
2022/09/15 05:53:16;;;;;;;4.28;1.90;;;;;;;;;;4936518;29;20380;-57
2022/09/15 05:55:41;;;;;;;2.10;1.70;;;;;;;;;;4936130;29;20023;-67
2022/09/15 05:58:07;;;;;;;1.80;1.70;;;;;;;;;;4936179;29;20032;-61
2022/09/15 06:00:33;;;;;;;1.85;1.75;;;;;;;;;;4936052;29;20032;-58
2022/09/15 06:02:59;;;;;;;1.85;1.70;;;;;;;;;;4934871;29;20043;-63
2022/09/15 06:05:24;;;;;;;1.65;1.55;;;;;;;;;;4932585;29;20035;-65
2022/09/15 06:07:53;;;;;;;2.05;1.90;;;;;;;;;;4933534;29;20036;-58
2022/09/15 06:10:21;;;;;;;2.03;1.75;;;;;;;;;;4933298;29;20075;-58
2022/09/15 06:12:47;;;;;;;1.70;1.60;;;;;;;;;;4933111;29;20030;-67
2022/09/15 06:15:13;;;;;;;2.10;1.85;;;;;;;;;;4917205;29;20077;-65
2022/09/15 06:17:39;;;;;;;1.83;1.67;;;;;;;;;;4935709;29;20063;-58
2022/09/15 06:20:06;;;;;;;1.98;1.80;;;;;;;;;;4935933;29;20040;-66
2022/09/15 06:22:32;;;;;;;2.25;1.67;;;;;;;;;;4954652;29;20030;-57
2022/09/15 06:24:58;;;;;;;1.88;1.70;;;;;;;;;;4932074;29;20777;-63
2022/09/15 06:27:24;;;;;;;1.90;1.75;;;;;;;;;;4933946;29;20035;-61
2022/09/15 06:29:49;;;;;;;1.92;1.73;;;;;;;;;;4934125;29;20055;-60
2022/09/15 06:32:15;;;;;;;2.35;1.88;;;;;;;;;;4932834;29;20131;-60
2022/09/15 06:34:40;;;;;;;2.13;1.60;;;;;;;;;;4939380;29;20038;-60
2022/09/15 06:37:06;;;;;;;3.22;1.92;;;;;;;;;;4953153;29;20486;-59
2022/09/15 06:39:32;;;;;;;4.07;2.20;;;;;;;;;;4952831;29;20035;-59
2022/09/15 06:41:57;;;;;;;2.05;1.80;;;;;;;;;;4952303;29;20391;-60
2022/09/15 06:44:23;;;;;;;3.45;1.80;;;;;;;;;;4951229;29;20818;-59
2022/09/15 06:46:49;;;;;;;2.45;1.92;;;;;;;;;;4951891;29;20027;-60
2022/09/15 06:49:14;;;;;;;2.75;1.70;;;;;;;;;;4952355;29;20530;-59
2022/09/15 06:51:40;;;;;;;5.00;1.90;;;;;;;;;;4952365;29;20034;-60
2022/09/15 06:54:06;;;;;;;3.10;2.10;;;;;;;;;;4952187;29;20526;-60
2022/09/15 06:56:32;;;;;;;4.53;2.03;;;;;;;;;;4946276;29;20032;-63
2022/09/15 06:58:59;;;;;;;1.95;1.75;;;;;;;;;;4932431;29;20043;-59
2022/09/15 07:01:30;;;;;;;2.75;1.58;;;;;;;;;;4933694;29;20530;-59
2022/09/15 07:03:57;;;;;;;1.83;1.70;;;;;;;;;;4933922;29;20110;-59
2022/09/15 07:06:23;;;;;;;1.83;1.60;;;;;;;;;;4933707;29;20027;-60
2022/09/15 07:08:49;;;;;;;2.58;1.95;;;;;;;;;;4933407;29;20373;-59
2022/09/15 07:11:15;;;;;;;2.08;1.83;;;;;;;;;;4933943;29;20036;-59
2022/09/15 07:13:41;;;;;;;2.75;1.80;;;;;;;;;;4933502;29;20028;-59
2022/09/15 07:16:10;;;;;;;2.97;1.83;;;;;;;;;;4933585;29;20028;-60
2022/09/15 07:18:35;;;;;;;3.35;1.70;;;;;;;;;;4935707;29;20051;-59
2022/09/15 07:21:04;;;;;;;2.22;1.60;;;;;;;;;;4937722;29;20028;-60
2022/09/15 07:23:30;;;;;;;2.45;1.80;;;;;;;;;;4935788;29;20030;-59
2022/09/15 07:26:14;;;;;;;3.40;1.80;;;;;;;;;;4937329;29;20086;-60
2022/09/15 07:28:43;;;;;;;2.15;1.65;;;;;;;;;;4937602;29;20055;-59
2022/09/15 07:31:11;;;;;;;2.28;1.65;;;;;;;;;;4937137;29;20506;-59
2022/09/15 07:33:36;;;;;;;2.95;2.17;;;;;;;;;;4936973;29;20444;-59
2022/09/15 07:36:05;;;;;;;2.03;1.80;;;;;;;;;;4937117;29;20031;-60
2022/09/15 07:38:30;;;;;;;4.40;2.03;;;;;;;;;;4937438;29;20028;-61
2022/09/15 07:41:07;;;;;;;3.25;2.10;;;;;;;;;;4937428;29;20036;-61
2022/09/15 07:43:32;;;;;;;2.45;1.80;;;;;;;;;;4937113;29;20063;-61
2022/09/15 07:45:59;;;;;;;1.80;1.60;;;;;;;;;;4937293;29;20114;-59
2022/09/15 07:48:25;;;;;;;2.10;1.90;;;;;;;;;;4937006;29;20055;-59
2022/09/15 07:50:50;;;;;;;2.80;2.00;;;;;;;;;;4937122;29;20130;-59
2022/09/15 07:53:16;;;;;;;1.85;1.75;;;;;;;;;;4935305;29;20090;-59
2022/09/15 07:55:42;;;;;;;5.95;2.00;;;;;;;;;;4933319;29;20035;-60
2022/09/15 07:58:07;;;;;;;3.03;1.67;;;;;;;;;;4936700;29;20051;-59
2022/09/15 08:00:33;;;;;;;2.97;1.95;;;;;;;;;;4937195;29;20028;-58
2022/09/15 08:02:59;;;;;;;3.40;1.85;;;;;;;;;;4936788;29;20111;-60
2022/09/15 08:05:27;;;;;;;3.10;2.20;;;;;;;;;;4936963;29;20027;-59
2022/09/15 08:07:54;;;;;;;3.22;1.90;;;;;;;;;;4936644;29;20098;-59
2022/09/15 08:10:21;;;;;;;2.15;1.90;;;;;;;;;;4936923;29;20042;-60
2022/09/15 08:12:47;;;;;;;2.00;1.80;;;;;;;;;;4936521;29;20040;-63
2022/09/15 08:15:13;;;;;;;3.47;2.00;;;;;;;;;;4936856;29;20032;-59
2022/09/15 08:17:38;;;;;;;3.53;2.00;;;;;;;;;;4936750;29;20079;-60
2022/09/15 08:20:05;;;;;;;2.95;2.35;;;;;;;;;;4936678;29;20048;-59
2022/09/15 08:22:30;;;;;;;2.95;2.05;;;;;;;;;;4936797;29;20032;-60
2022/09/15 08:24:55;;;;;;;2.00;1.80;;;;;;;;;;4936542;29;20460;-59
2022/09/15 08:27:21;;;;;;;4.32;1.98;;;;;;;;;;4936629;29;20078;-58
2022/09/15 08:29:47;;;;;;;2.08;1.83;;;;;;;;;;4936397;29;20582;-60
2022/09/15 08:32:12;;;;;;;2.15;1.95;;;;;;;;;;4936292;29;20048;-60
2022/09/15 08:34:38;;;;;;;4.45;1.85;;;;;;;;;;4936139;29;20055;-60
2022/09/15 08:37:03;;;;;;;6.05;2.08;;;;;;;;;;4918921;29;20041;-59
2022/09/15 08:39:29;;;;;;;4.22;2.00;;;;;;;;;;4936069;29;20487;-59
2022/09/15 08:41:54;;;;;;;2.10;1.90;;;;;;;;;;4935313;29;20036;-59
2022/09/15 08:44:43;;;;;;;3.33;1.90;;;;;;;;;;4935896;29;20028;-59
2022/09/15 08:47:08;;;;;;;2.47;1.98;;;;;;;;;;4935988;29;20111;-59
2022/09/15 08:49:37;;;;;;;2.38;2.13;;;;;;;;;;4935775;29;20122;-59
2022/09/15 08:52:09;;;;;;;2.45;2.15;;;;;;;;;;4936005;29;20020;-61
2022/09/15 08:54:35;;;;;;;4.25;2.15;;;;;;;;;;4936077;29;20024;-60
2022/09/15 08:57:03;;;;;;;3.22;2.00;;;;;;;;;;4935823;29;20074;-59
2022/09/15 08:59:34;;;;;;;4.20;2.05;;;;;;;;;;4935998;29;20028;-59
2022/09/15 09:02:26;;;;;;;2.03;1.65;;;;;;;;;;4936526;29;20031;-60
2022/09/15 09:05:00;;;;;;;5.30;2.00;;;;;;;;;;4931731;29;20035;-59
2022/09/15 09:07:56;;;;;;;3.95;1.95;;;;;;;;;;4955004;29;20114;-61
2022/09/15 09:10:32;;;;;;;6.15;1.75;;;;;;;;;;4954690;29;20152;-59
2022/09/15 09:13:21;;;;;;;2.70;1.92;;;;;;;;;;4941187;29;20119;-60
2022/09/15 09:16:16;;;;;;;2.10;1.90;;;;;;;;;;4916515;29;20029;-59
2022/09/15 09:19:14;;;;;;;3.45;1.88;;;;;;;;;;4916210;29;20028;-61
2022/09/15 09:21:50;;;;;;;5.32;2.30;;;;;;;;;;4916373;29;20131;-60
2022/09/15 09:24:37;;;;;;;3.28;1.70;;;;;;;;;;4926946;29;20397;-60
2022/09/15 09:27:04;;;;;;;5.57;2.00;;;;;;;;;;4931637;29;20062;-60
2022/09/15 09:29:35;;;;;;;4.45;2.10;;;;;;;;;;4935087;29;20488;-59
2022/09/15 09:32:02;;;;;;;1.90;1.80;;;;;;;;;;4932615;29;20055;-61
2022/09/15 09:34:44;;;;;;;4.90;1.70;;;;;;;;;;4935278;29;20114;-59
2022/09/15 09:37:14;;;;;;;3.10;2.00;;;;;;;;;;4935301;29;20082;-60
2022/09/15 09:39:40;;;;;;;3.22;1.75;;;;;;;;;;4935164;29;20028;-59
2022/09/15 09:42:11;;;;;;;4.60;2.30;;;;;;;;;;4934567;29;20031;-60
2022/09/15 09:44:39;;;;;;;3.00;2.10;;;;;;;;;;4934847;29;20035;-60
2022/09/15 09:47:04;;;;;;;4.93;1.80;;;;;;;;;;4934640;29;20119;-61
2022/09/15 09:49:33;;;;;;;5.00;2.22;;;;;;;;;;4934840;29;20110;-60
2022/09/15 09:52:02;;;;;;;5.97;2.10;;;;;;;;;;4934586;29;20039;-60
2022/09/15 09:54:30;;;;;;;4.22;1.98;;;;;;;;;;4931612;29;20035;-60
2022/09/15 09:57:13;;;;;;;2.90;1.60;;;;;;;;;;4930177;29;20055;-60
2022/09/15 09:59:46;;;;;;;4.50;1.80;;;;;;;;;;4934956;29;20114;-59
2022/09/15 10:02:14;;;;;;;3.30;1.88;;;;;;;;;;4934765;29;20031;-59
2022/09/15 10:04:45;;;;;;;5.60;1.80;;;;;;;;;;4934505;29;20040;-60
2022/09/15 10:07:12;;;;;;;2.35;1.85;;;;;;;;;;4933511;29;20387;-59
2022/09/15 10:09:39;;;;;;;3.88;1.80;;;;;;;;;;4934351;29;20044;-59
2022/09/15 10:12:05;;;;;;;6.05;1.80;;;;;;;;;;4931264;29;20051;-60
2022/09/15 10:14:32;;;;;;;3.67;1.85;;;;;;;;;;4930776;29;20024;-59
2022/09/15 10:17:01;;;;;;;4.65;1.90;;;;;;;;;;4932521;29;20031;-59
2022/09/15 10:19:31;;;;;;;2.20;1.80;;;;;;;;;;4934307;29;20033;-59
2022/09/15 10:21:57;;;;;;;2.63;1.88;;;;;;;;;;4916840;29;20031;-58
2022/09/15 10:24:26;;;;;;;3.95;1.80;;;;;;;;;;4934131;29;20030;-59
2022/09/15 10:27:24;;;;;;;3.03;1.67;;;;;;;;;;4934100;29;20028;-58
2022/09/15 10:29:50;;;;;;;3.78;2.55;;;;;;;;;;4932456;29;20043;-60
2022/09/15 10:32:29;;;;;;;2.50;2.05;;;;;;;;;;4932685;29;20077;-61
2022/09/15 10:35:10;;;;;;;6.38;2.20;;;;;;;;;;4933692;29;20036;-59
2022/09/15 10:37:59;;;;;;;2.60;1.70;;;;;;;;;;4934261;29;20036;-61
2022/09/15 10:40:54;;;;;;;8.50;2.00;;;;;;;;;;4933233;29;20484;-59
2022/09/15 10:43:36;;;;;;;6.53;2.10;;;;;;;;;;4918221;29;20035;-58
2022/09/15 10:46:22;;;;;;;3.42;1.88;;;;;;;;;;4932751;29;20036;-59
2022/09/15 10:48:57;;;;;;;2.95;1.80;;;;;;;;;;4933561;29;20040;-60
2022/09/15 10:51:26;;;;;;;2.33;1.80;;;;;;;;;;4929945;29;20075;-61
2022/09/15 10:54:17;;;;;;;4.28;2.00;;;;;;;;;;4929916;29;20034;-61
2022/09/15 10:56:50;;;;;;;2.55;1.95;;;;;;;;;;4933680;29;20507;-60
2022/09/15 10:59:43;;;;;;;2.55;2.00;;;;;;;;;;4933744;29;20031;-62
2022/09/15 11:02:15;;;;;;;2.10;1.90;;;;;;;;;;4933792;29;20035;-59
2022/09/15 11:04:43;;;;;;;2.78;1.90;;;;;;;;;;4933723;29;20118;-59
2022/09/15 11:08:06;;;;;;;4.30;1.90;;;;;;;;;;4933747;29;20028;-59
2022/09/15 11:10:50;;;;;;;1.80;1.70;;;;;;;;;;4912106;29;20046;-60
2022/09/15 11:13:56;;;;;;;5.63;1.98;;;;;;;;;;4911447;29;20074;-60
2022/09/15 11:16:31;;;;;;;8.55;1.80;;;;;;;;;;4914356;29;20408;-59
2022/09/15 11:19:30;;;;;;;4.05;1.90;;;;;;;;;;4924563;29;20031;-60
2022/09/15 11:22:12;;;;;;;2.50;2.17;;;;;;;;;;4932623;29;20039;-63
2022/09/15 11:24:44;;;;;;;2.00;1.85;;;;;;;;;;4930683;29;20075;-63
2022/09/15 11:27:19;;;;;;;2.65;1.67;;;;;;;;;;4933720;29;20028;-60
2022/09/15 11:30:14;;;;;;;2.90;1.90;;;;;;;;;;4932862;29;20651;-59
2022/09/15 11:32:49;;;;;;;2.65;1.83;;;;;;;;;;4933181;29;20127;-61
2022/09/15 11:35:15;;;;;;;2.85;1.80;;;;;;;;;;4933656;29;20019;-59
2022/09/15 11:37:47;;;;;;;1.92;1.80;;;;;;;;;;4933255;29;20095;-59
2022/09/15 11:40:23;;;;;;;2.40;2.08;;;;;;;;;;4933492;29;20055;-59
2022/09/15 11:43:02;;;;;;;2.13;1.63;;;;;;;;;;4933306;29;20027;-63
2022/09/15 11:45:35;;;;;;;3.83;1.77;;;;;;;;;;4932801;29;20032;-60
2022/09/15 11:48:33;;;;;;;2.38;1.92;;;;;;;;;;4932776;29;20547;-61
2022/09/15 11:51:01;;;;;;;2.67;1.80;;;;;;;;;;4925909;29;20036;-59
2022/09/15 11:53:30;;;;;;;3.15;1.77;;;;;;;;;;4933137;29;20032;-61
2022/09/15 11:56:14;;;;;;;;;;;;;;;;;;4933332;29;20498;-61
2022/09/15 11:58:40;;;;;;;1.67;1.58;;;;;;;;;;4933323;29;19914;-61
2022/09/15 12:01:24;;;;;;;3.05;1.70;;;;;;;;;;4933364;29;20034;-61
2022/09/15 12:04:01;;;;;;;2.75;1.70;;;;;;;;;;4933748;29;20028;-61
2022/09/15 12:06:29;;;;;;;2.13;1.92;;;;;;;;;;4936467;29;20379;-64
2022/09/15 12:09:00;;;;;;;2.08;1.88;;;;;;;;;;4919519;29;20035;-61
2022/09/15 12:11:35;;;;;;;3.38;2.00;;;;;;;;;;4936830;29;20106;-61
2022/09/15 12:14:05;;;;;;;2.03;1.77;;;;;;;;;;4936722;29;20102;-62
2022/09/15 12:16:32;;;;;;;2.13;1.92;;;;;;;;;;4936683;29;20032;-59
2022/09/15 12:19:14;;;;;;;2.33;1.45;;;;;;;;;;4932194;29;20419;-59
2022/09/15 12:21:56;;;;;;;2.60;2.03;;;;;;;;;;4934520;29;20027;-61
2022/09/15 12:24:48;;;;;;;2.03;1.60;;;;;;;;;;4936645;29;20039;-65
2022/09/15 12:27:19;;;;;;;38.88;4.90;;;;;;;;;;4936323;29;20559;-61
2022/09/15 12:29:55;;;;;;;75.22;6.70;;;;;;;;;;4936192;29;20031;-63
2022/09/15 12:32:32;;;;;;;37.17;4.93;;;;;;;;;;4936057;29;20048;-64
2022/09/15 12:34:59;;;;;;;40.22;4.47;;;;;;;;;;4935911;29;20066;-65
2022/09/15 12:37:33;;;;;;;34.20;4.35;;;;;;;;;;4935017;29;20035;-63
2022/09/15 12:39:58;;;;;;;19.10;3.03;;;;;;;;;;4935949;29;20034;-64
2022/09/15 12:42:30;;;;;;;19.13;3.45;;;;;;;;;;4928515;29;20027;-64
2022/09/15 12:44:58;;;;;;;21.60;3.30;;;;;;;;;;4933288;29;20396;-63
2022/09/15 12:47:49;;;;;;;19.70;3.47;;;;;;;;;;4935375;29;20031;-63
2022/09/15 12:50:14;;;;;;;18.02;2.97;;;;;;;;;;4925770;29;20488;-61
2022/09/15 12:53:20;;;;;;;22.15;3.08;;;;;;;;;;4935173;29;20038;-64
2022/09/15 12:56:01;;;;;;;20.80;2.67;;;;;;;;;;4933408;29;20039;-61
2022/09/15 12:58:47;;;;;;;12.43;2.88;;;;;;;;;;4935653;29;20050;-65
2022/09/15 13:01:22;;;;;;;16.15;3.28;;;;;;;;;;4935598;29;20114;-64
2022/09/15 13:03:52;;;;;;;9.88;2.75;;;;;;;;;;4935855;29;20476;-64
2022/09/15 13:06:27;;;;;;;10.50;2.70;;;;;;;;;;4935677;29;20186;-64
2022/09/15 13:09:00;;;;;;;11.98;2.20;;;;;;;;;;4934692;29;20082;-64
2022/09/15 13:11:49;;;;;;;10.52;2.38;;;;;;;;;;4916588;29;20055;-66
2022/09/15 13:14:31;;;;;;;8.57;2.35;;;;;;;;;;4916855;29;20028;-64
2022/09/15 13:17:11;;;;;;;13.93;2.30;;;;;;;;;;4915329;29;20122;-62
2022/09/15 13:19:46;;;;;;;8.48;2.20;;;;;;;;;;4916640;29;20409;-65
2022/09/15 13:22:30;;;;;;;11.85;2.80;;;;;;;;;;4916402;29;20032;-63
2022/09/15 13:25:06;;;;;;;9.10;2.65;;;;;;;;;;4916473;29;20040;-64
2022/09/15 13:27:38;;;;;;;9.50;2.40;;;;;;;;;;4916111;29;20028;-61
2022/09/15 13:30:19;;;;;;;5.53;2.33;;;;;;;;;;4916362;29;20059;-61
2022/09/15 13:33:18;;;;;;;6.97;2.13;;;;;;;;;;4915925;29;20745;-62
2022/09/15 13:35:50;;;;;;;12.48;2.30;;;;;;;;;;4916382;29;20040;-61
2022/09/15 13:38:56;;;;;;;10.70;2.40;;;;;;;;;;4916234;29;20577;-63
2022/09/15 13:41:41;;;;;;;7.28;2.40;;;;;;;;;;4927764;29;20396;-60
2022/09/15 13:44:34;;;;;;;9.77;2.30;;;;;;;;;;4934792;29;20027;-61
2022/09/15 13:47:21;;;;;;;5.75;2.20;;;;;;;;;;4935105;29;20075;-62
2022/09/15 13:49:52;;;;;;;7.55;2.15;;;;;;;;;;4917486;29;20534;-64
2022/09/15 13:52:19;;;;;;;10.32;2.50;;;;;;;;;;4934932;29;20388;-62
2022/09/15 13:55:25;;;;;;;4.50;2.00;;;;;;;;;;4934846;29;20512;-61
2022/09/15 13:57:55;;;;;;;8.43;2.40;;;;;;;;;;4935137;29;20050;-61
2022/09/15 14:00:46;;;;;;;4.95;2.08;;;;;;;;;;4934497;29;20529;-61
2022/09/15 14:03:16;;;;;;;10.75;2.80;;;;;;;;;;4935080;29;20041;-61
2022/09/15 14:05:43;;;;;;;8.68;1.90;;;;;;;;;;4934779;29;20349;-60
2022/09/15 14:08:19;;;;;;;10.27;2.10;;;;;;;;;;4934787;29;20432;-60
2022/09/15 14:10:55;;;;;;;5.10;2.20;;;;;;;;;;4934651;29;20036;-61
2022/09/15 14:13:23;;;;;;;7.63;2.45;;;;;;;;;;4931102;29;20032;-60
2022/09/15 14:16:09;;;;;;;8.00;2.45;;;;;;;;;;4934637;29;20028;-61
2022/09/15 14:18:43;;;;;;;8.90;2.30;;;;;;;;;;4934413;29;20050;-65
2022/09/15 14:21:18;;;;;;;8.10;2.50;;;;;;;;;;4917034;29;20039;-63
2022/09/15 14:23:46;;;;;;;5.05;2.05;;;;;;;;;;4916411;29;20051;-62
2022/09/15 14:26:14;;;;;;;5.43;2.33;;;;;;;;;;4934182;29;20031;-61
2022/09/15 14:28:41;;;;;;;6.35;2.58;;;;;;;;;;4934113;29;20122;-61
2022/09/15 14:31:06;;;;;;;13.50;2.63;;;;;;;;;;4934325;29;20027;-60
2022/09/15 14:33:38;;;;;;;6.13;2.20;;;;;;;;;;4933828;29;20488;-62
2022/09/15 14:36:30;;;;;;;8.65;2.20;;;;;;;;;;4934486;29;20053;-60
2022/09/15 14:39:11;;;;;;;6.03;2.33;;;;;;;;;;4934173;29;20035;-65
2022/09/15 14:41:40;;;;;;;4.80;2.15;;;;;;;;;;4932101;29;20047;-61
2022/09/15 14:44:39;;;;;;;7.68;2.45;;;;;;;;;;4933393;29;20043;-61
2022/09/15 14:47:25;;;;;;;;;;;;;;;;;;4917292;29;20547;-65
2022/09/15 14:50:10;;;;;;;4.13;2.03;;;;;;;;;;4932702;29;19914;-61
2022/09/15 14:52:47;;;;;;;7.78;2.50;;;;;;;;;;4933885;29;20564;-61
2022/09/15 14:55:29;;;;;;;6.15;2.45;;;;;;;;;;4934044;29;20055;-60
2022/09/15 14:58:13;;;;;;;5.43;2.28;;;;;;;;;;4933847;29;20484;-61
2022/09/15 15:01:02;;;;;;;7.05;2.22;;;;;;;;;;4918973;29;20058;-61
2022/09/15 15:03:43;;;;;;;5.65;2.08;;;;;;;;;;4920226;29;20407;-61
2022/09/15 15:06:22;;;;;;;7.82;2.45;;;;;;;;;;4933949;29;20167;-61
2022/09/15 15:09:08;;;;;;;6.10;2.08;;;;;;;;;;4933727;29;20031;-61
2022/09/15 15:11:38;;;;;;;7.00;2.50;;;;;;;;;;4933011;29;20377;-61